sensor_id;sensor_type;location;lat;lon;timestamp;pressure;altitude;pressure_sealevel;temperature;humidity
47374;BME280;33123;50.118;10.272;2023-02-15T00:01:29;99150.53;;;2.82;74.87
47374;BME280;33123;50.118;10.272;2023-02-15T00:03:56;99143.38;;;2.84;75.00
47374;BME280;33123;50.118;10.272;2023-02-15T00:06:24;99141.44;;;2.86;75.23
47374;BME280;33123;50.118;10.272;2023-02-15T00:08:51;99140.16;;;2.90;75.71
47374;BME280;33123;50.118;10.272;2023-02-15T00:11:18;99138.50;;;2.81;75.29
47374;BME280;33123;50.118;10.272;2023-02-15T00:14:06;99138.19;;;2.84;75.09
47374;BME280;33123;50.118;10.272;2023-02-15T00:16:33;99131.31;;;2.83;75.32
47374;BME280;33123;50.118;10.272;2023-02-15T00:19:00;99128.06;;;2.81;75.23
47374;BME280;33123;50.118;10.272;2023-02-15T00:21:29;99122.56;;;2.84;75.63
47374;BME280;33123;50.118;10.272;2023-02-15T00:23:56;99122.56;;;2.84;75.47
47374;BME280;33123;50.118;10.272;2023-02-15T00:26:23;99126.13;;;2.83;75.20
47374;BME280;33123;50.118;10.272;2023-02-15T00:28:50;99127.78;;;2.84;75.16
47374;BME280;33123;50.118;10.272;2023-02-15T00:31:17;99131.50;;;2.81;75.29
47374;BME280;33123;50.118;10.272;2023-02-15T00:33:43;99129.41;;;2.85;75.74
47374;BME280;33123;50.118;10.272;2023-02-15T00:36:10;99134.25;;;2.88;75.29
47374;BME280;33123;50.118;10.272;2023-02-15T00:38:38;99134.25;;;2.88;75.24
47374;BME280;33123;50.118;10.272;2023-02-15T00:41:07;99136.72;;;2.89;74.75
47374;BME280;33123;50.118;10.272;2023-02-15T00:43:34;99129.41;;;2.85;74.35
47374;BME280;33123;50.118;10.272;2023-02-15T00:46:02;99132.31;;;2.82;74.23
47374;BME280;33123;50.118;10.272;2023-02-15T00:48:29;99123.84;;;2.80;74.24
47374;BME280;33123;50.118;10.272;2023-02-15T00:50:57;99115.38;;;2.70;74.39
47374;BME280;33123;50.118;10.272;2023-02-15T00:53:25;99121.22;;;2.72;74.45
47374;BME280;33123;50.118;10.272;2023-02-15T00:55:54;99115.38;;;2.61;74.69
47374;BME280;33123;50.118;10.272;2023-02-15T00:58:21;99125.78;;;2.61;74.86
47374;BME280;33123;50.118;10.272;2023-02-15T01:00:47;99116.66;;;2.57;75.28
47374;BME280;33123;50.118;10.272;2023-02-15T01:03:15;99105.25;;;2.50;75.17
47374;BME280;33123;50.118;10.272;2023-02-15T01:05:42;99119.44;;;2.56;74.86
47374;BME280;33123;50.118;10.272;2023-02-15T01:08:09;99115.84;;;2.57;74.95
47374;BME280;33123;50.118;10.272;2023-02-15T01:10:36;99114.03;;;2.49;75.18
47374;BME280;33123;50.118;10.272;2023-02-15T01:13:04;99103.63;;;2.49;74.68
47374;BME280;33123;50.118;10.272;2023-02-15T01:15:31;99106.22;;;2.41;75.32
47374;BME280;33123;50.118;10.272;2023-02-15T01:17:59;99103.13;;;2.46;75.10
47374;BME280;33123;50.118;10.272;2023-02-15T01:20:28;99097.09;;;2.37;75.37
47374;BME280;33123;50.118;10.272;2023-02-15T01:22:55;99104.41;;;2.42;75.65
47374;BME280;33123;50.118;10.272;2023-02-15T01:25:23;99105.88;;;2.44;75.58
47374;BME280;33123;50.118;10.272;2023-02-15T01:27:50;99111.41;;;2.41;75.42
47374;BME280;33123;50.118;10.272;2023-02-15T01:30:18;99033.88;;;1.94;75.16
47374;BME280;33123;50.118;10.272;2023-02-15T01:32:45;99103.59;;;2.41;74.84
47374;BME280;33123;50.118;10.272;2023-02-15T01:35:11;99106.16;;;2.33;75.21
47374;BME280;33123;50.118;10.272;2023-02-15T01:37:38;99101.31;;;2.38;75.37
47374;BME280;33123;50.118;10.272;2023-02-15T01:40:07;99101.00;;;2.41;75.42
47374;BME280;33123;50.118;10.272;2023-02-15T01:42:34;99092.22;;;2.42;75.18
47374;BME280;33123;50.118;10.272;2023-02-15T01:45:02;99091.09;;;2.45;75.61
47374;BME280;33123;50.118;10.272;2023-02-15T01:47:33;99084.59;;;2.49;75.79
47374;BME280;33123;50.118;10.272;2023-02-15T01:50:07;99079.25;;;2.50;74.76
47374;BME280;33123;50.118;10.272;2023-02-15T01:52:37;99043.72;;;2.25;74.79
47374;BME280;33123;50.118;10.272;2023-02-15T01:55:06;99078.25;;;2.51;75.11
47374;BME280;33123;50.118;10.272;2023-02-15T01:57:33;99080.53;;;2.54;75.14
47374;BME280;33123;50.118;10.272;2023-02-15T02:00:03;99085.44;;;2.57;75.09
47374;BME280;33123;50.118;10.272;2023-02-15T02:02:34;99079.06;;;2.60;75.68
47374;BME280;33123;50.118;10.272;2023-02-15T02:05:03;99077.78;;;2.64;75.39
47374;BME280;33123;50.118;10.272;2023-02-15T02:07:34;99076.66;;;2.67;75.55
47374;BME280;33123;50.118;10.272;2023-02-15T02:10:02;99077.31;;;2.69;75.05
47374;BME280;33123;50.118;10.272;2023-02-15T02:12:29;99075.34;;;2.71;74.63
47374;BME280;33123;50.118;10.272;2023-02-15T02:14:56;99078.63;;;2.73;74.53
47374;BME280;33123;50.118;10.272;2023-02-15T02:17:32;99079.44;;;2.73;74.91
47374;BME280;33123;50.118;10.272;2023-02-15T02:20:27;99076.66;;;2.75;74.64
47374;BME280;33123;50.118;10.272;2023-02-15T02:23:20;99071.47;;;2.67;74.19
47374;BME280;33123;50.118;10.272;2023-02-15T02:32:18;99053.53;;;2.55;74.19
47374;BME280;33123;50.118;10.272;2023-02-15T02:34:56;99056.00;;;2.57;74.73
47374;BME280;33123;50.118;10.272;2023-02-15T02:37:32;98974.75;;;2.04;74.84
47374;BME280;33123;50.118;10.272;2023-02-15T02:40:03;98750.34;;;0.56;74.52
47374;BME280;33123;50.118;10.272;2023-02-15T02:42:37;99061.34;;;2.63;74.92
47374;BME280;33123;50.118;10.272;2023-02-15T02:45:08;99021.63;;;2.37;74.31
47374;BME280;33123;50.118;10.272;2023-02-15T02:47:38;99055.84;;;2.67;73.82
47374;BME280;33123;50.118;10.272;2023-02-15T02:50:11;98996.59;;;2.28;73.53
47374;BME280;33123;50.118;10.272;2023-02-15T02:52:40;99053.53;;;2.63;73.48
47374;BME280;33123;50.118;10.272;2023-02-15T02:55:12;99046.72;;;2.62;73.72
47374;BME280;33123;50.118;10.272;2023-02-15T02:57:46;98911.84;;;1.76;74.09
47374;BME280;33123;50.118;10.272;2023-02-15T03:00:15;99050.13;;;2.63;74.30
47374;BME280;33123;50.118;10.272;2023-02-15T03:02:44;99051.94;;;2.62;74.59
47374;BME280;33123;50.118;10.272;2023-02-15T03:05:18;98942.41;;;1.99;74.29
47374;BME280;33123;50.118;10.272;2023-02-15T03:07:49;98954.81;;;2.13;74.36
47374;BME280;33123;50.118;10.272;2023-02-15T03:10:21;98934.94;;;1.96;73.73
47374;BME280;33123;50.118;10.272;2023-02-15T03:12:48;98985.56;;;2.34;73.40
47374;BME280;33123;50.118;10.272;2023-02-15T03:15:19;98959.84;;;2.15;73.30
47374;BME280;33123;50.118;10.272;2023-02-15T03:17:49;99002.44;;;2.38;74.12
47374;BME280;33123;50.118;10.272;2023-02-15T03:20:23;98968.63;;;2.14;73.95
47374;BME280;33123;50.118;10.272;2023-02-15T03:22:55;98957.88;;;2.00;73.20
47374;BME280;33123;50.118;10.272;2023-02-15T03:25:26;98757.63;;;0.52;72.73
47374;BME280;33123;50.118;10.272;2023-02-15T03:27:58;98979.50;;;2.01;72.88
47374;BME280;33123;50.118;10.272;2023-02-15T03:30:27;98900.41;;;1.53;73.12
47374;BME280;33123;50.118;10.272;2023-02-15T03:32:56;98920.56;;;1.59;73.92
47374;BME280;33123;50.118;10.272;2023-02-15T03:35:29;99009.25;;;2.15;73.68
47374;BME280;33123;50.118;10.272;2023-02-15T03:38:00;98983.22;;;1.98;74.20
47374;BME280;33123;50.118;10.272;2023-02-15T03:40:30;99031.72;;;2.32;73.83
47374;BME280;33123;50.118;10.272;2023-02-15T03:43:19;98793.50;;;0.65;74.53
47374;BME280;33123;50.118;10.272;2023-02-15T03:45:52;98894.06;;;1.47;74.14
47374;BME280;33123;50.118;10.272;2023-02-15T03:48:24;99028.47;;;2.38;74.16
47374;BME280;33123;50.118;10.272;2023-02-15T03:50:56;99030.75;;;2.41;74.41
47374;BME280;33123;50.118;10.272;2023-02-15T03:53:43;98925.13;;;1.65;73.40
47374;BME280;33123;50.118;10.272;2023-02-15T03:56:11;98936.03;;;1.77;73.46
47374;BME280;33123;50.118;10.272;2023-02-15T03:58:38;99024.06;;;2.30;73.25
47374;BME280;33123;50.118;10.272;2023-02-15T04:01:26;98971.19;;;1.97;73.82
47374;BME280;33123;50.118;10.272;2023-02-15T04:04:39;99021.63;;;2.29;73.91
47374;BME280;33123;50.118;10.272;2023-02-15T04:07:08;99018.06;;;2.30;73.98
47374;BME280;33123;50.118;10.272;2023-02-15T04:09:35;99012.03;;;2.29;73.84
47374;BME280;33123;50.118;10.272;2023-02-15T04:12:20;98984.22;;;2.14;73.75
47374;BME280;33123;50.118;10.272;2023-02-15T04:14:47;99013.50;;;2.32;73.88
47374;BME280;33123;50.118;10.272;2023-02-15T04:17:30;99014.16;;;2.34;74.04
47374;BME280;33123;50.118;10.272;2023-02-15T04:19:58;99010.41;;;2.28;73.48
47374;BME280;33123;50.118;10.272;2023-02-15T04:22:43;99007.31;;;2.25;73.49
47374;BME280;33123;50.118;10.272;2023-02-15T04:25:27;99012.22;;;2.28;73.59
47374;BME280;33123;50.118;10.272;2023-02-15T04:27:54;98988.09;;;2.09;73.89
47374;BME280;33123;50.118;10.272;2023-02-15T04:30:23;99006.81;;;2.21;73.54
47374;BME280;33123;50.118;10.272;2023-02-15T04:32:50;99012.19;;;2.20;73.57
47374;BME280;33123;50.118;10.272;2023-02-15T04:35:18;99011.03;;;2.14;74.36
47374;BME280;33123;50.118;10.272;2023-02-15T04:37:44;99004.50;;;2.10;74.40
47374;BME280;33123;50.118;10.272;2023-02-15T04:40:13;98988.09;;;2.09;74.15
47374;BME280;33123;50.118;10.272;2023-02-15T04:42:40;98998.50;;;2.09;74.24
47374;BME280;33123;50.118;10.272;2023-02-15T04:45:07;99000.47;;;2.07;74.61
47374;BME280;33123;50.118;10.272;2023-02-15T04:47:33;99005.00;;;2.05;74.74
47374;BME280;33123;50.118;10.272;2023-02-15T04:50:00;98997.19;;;1.97;74.89
47374;BME280;33123;50.118;10.272;2023-02-15T04:52:28;98991.16;;;1.97;74.73
47374;BME280;33123;50.118;10.272;2023-02-15T04:54:55;98997.81;;;1.99;74.80
47374;BME280;33123;50.118;10.272;2023-02-15T04:57:21;98990.69;;;2.01;75.31
47374;BME280;33123;50.118;10.272;2023-02-15T04:59:48;98986.78;;;1.97;75.04
47374;BME280;33123;50.118;10.272;2023-02-15T05:02:14;98983.84;;;1.92;75.38
47374;BME280;33123;50.118;10.272;2023-02-15T05:04:41;98981.75;;;1.96;75.32
47374;BME280;33123;50.118;10.272;2023-02-15T05:07:07;98975.41;;;1.98;75.47
47374;BME280;33123;50.118;10.272;2023-02-15T05:09:35;98978.69;;;2.00;75.68
47374;BME280;33123;50.118;10.272;2023-02-15T05:12:02;98975.41;;;1.98;75.44
47374;BME280;33123;50.118;10.272;2023-02-15T05:14:29;98978.69;;;2.00;75.02
47374;BME280;33123;50.118;10.272;2023-02-15T05:16:55;98983.22;;;1.98;74.99
47374;BME280;33123;50.118;10.272;2023-02-15T05:19:26;98981.88;;;1.94;75.15
47374;BME280;33123;50.118;10.272;2023-02-15T05:21:52;98981.88;;;1.86;74.67
47374;BME280;33123;50.118;10.272;2023-02-15T05:24:19;98974.72;;;1.88;75.24
47374;BME280;33123;50.118;10.272;2023-02-15T05:27:04;98979.63;;;1.91;75.03
47374;BME280;33123;50.118;10.272;2023-02-15T05:29:48;98956.97;;;1.67;75.19
47374;BME280;33123;50.118;10.272;2023-02-15T05:32:15;98988.41;;;1.90;75.34
47374;BME280;33123;50.118;10.272;2023-02-15T05:34:42;98975.53;;;1.89;75.66
47374;BME280;33123;50.118;10.272;2023-02-15T05:37:09;98973.78;;;1.89;75.59
47374;BME280;33123;50.118;10.272;2023-02-15T05:39:35;98978.28;;;1.79;75.48
47374;BME280;33123;50.118;10.272;2023-02-15T05:42:03;98991.63;;;1.84;75.03
47374;BME280;33123;50.118;10.272;2023-02-15T05:44:30;98996.16;;;1.82;75.17
47374;BME280;33123;50.118;10.272;2023-02-15T05:46:58;98993.56;;;1.82;75.08
47374;BME280;33123;50.118;10.272;2023-02-15T05:49:24;98991.94;;;1.81;75.02
47374;BME280;33123;50.118;10.272;2023-02-15T05:51:51;98985.47;;;1.85;75.27
47374;BME280;33123;50.118;10.272;2023-02-15T05:54:18;98986.78;;;1.89;75.87
47374;BME280;33123;50.118;10.272;2023-02-15T05:56:44;98990.84;;;1.92;75.39
47374;BME280;33123;50.118;10.272;2023-02-15T05:59:12;98987.09;;;1.94;75.55
47374;BME280;33123;50.118;10.272;2023-02-15T06:01:39;98991.16;;;1.97;75.65
47374;BME280;33123;50.118;10.272;2023-02-15T06:04:06;98996.03;;;2.00;74.88
47374;BME280;33123;50.118;10.272;2023-02-15T06:06:32;98998.34;;;2.03;74.97
47374;BME280;33123;50.118;10.272;2023-02-15T06:08:59;98991.97;;;2.05;75.51
47374;BME280;33123;50.118;10.272;2023-02-15T06:11:26;98993.63;;;2.06;75.00
47374;BME280;33123;50.118;10.272;2023-02-15T06:13:53;99000.09;;;1.94;74.75
47374;BME280;33123;50.118;10.272;2023-02-15T06:16:21;98995.56;;;2.04;75.06
47374;BME280;33123;50.118;10.272;2023-02-15T06:18:49;98995.91;;;2.01;74.60
47374;BME280;33123;50.118;10.272;2023-02-15T06:21:15;98992.28;;;1.94;74.56
47374;BME280;33123;50.118;10.272;2023-02-15T06:23:42;98994.34;;;1.74;73.99
47374;BME280;33123;50.118;10.272;2023-02-15T06:26:09;99004.28;;;1.79;74.30
47374;BME280;33123;50.118;10.272;2023-02-15T06:28:35;99002.16;;;1.74;74.10
47374;BME280;33123;50.118;10.272;2023-02-15T06:31:02;99002.44;;;1.63;73.90
47374;BME280;33123;50.118;10.272;2023-02-15T06:33:30;99006.81;;;1.63;74.42
47374;BME280;33123;50.118;10.272;2023-02-15T06:35:59;99015.09;;;1.58;74.48
47374;BME280;33123;50.118;10.272;2023-02-15T06:38:25;99015.91;;;1.58;74.71
47374;BME280;33123;50.118;10.272;2023-02-15T06:40:52;99014.09;;;1.51;74.21
47374;BME280;33123;50.118;10.272;2023-02-15T06:43:18;99008.72;;;1.52;74.56
47374;BME280;33123;50.118;10.272;2023-02-15T06:45:45;99009.19;;;1.48;74.74
47374;BME280;33123;50.118;10.272;2023-02-15T06:48:12;99010.44;;;1.36;75.18
47374;BME280;33123;50.118;10.272;2023-02-15T06:50:40;99010.63;;;1.42;75.13
47374;BME280;33123;50.118;10.272;2023-02-15T06:53:06;99003.81;;;1.41;75.45
47374;BME280;33123;50.118;10.272;2023-02-15T06:55:33;99007.22;;;1.50;75.51
47374;BME280;33123;50.118;10.272;2023-02-15T06:58:00;99014.28;;;1.57;75.53
47374;BME280;33123;50.118;10.272;2023-02-15T07:00:26;99019.50;;;1.66;76.17
47374;BME280;33123;50.118;10.272;2023-02-15T07:02:53;99011.06;;;1.72;75.82
47374;BME280;33123;50.118;10.272;2023-02-15T07:05:21;99008.50;;;1.80;75.18
47374;BME280;33123;50.118;10.272;2023-02-15T07:07:49;98996.50;;;1.79;75.14
47374;BME280;33123;50.118;10.272;2023-02-15T07:10:16;99010.81;;;1.91;75.13
47374;BME280;33123;50.118;10.272;2023-02-15T07:12:43;99002.56;;;1.96;75.11
47374;BME280;33123;50.118;10.272;2023-02-15T07:15:12;99003.03;;;1.99;74.72
47374;BME280;33123;50.118;10.272;2023-02-15T07:17:39;99006.31;;;2.01;74.18
47374;BME280;33123;50.118;10.272;2023-02-15T07:20:08;99005.84;;;2.06;74.29
47374;BME280;33123;50.118;10.272;2023-02-15T07:22:35;99008.91;;;2.09;74.75
47374;BME280;33123;50.118;10.272;2023-02-15T07:25:04;99011.03;;;2.14;73.96
47374;BME280;33123;50.118;10.272;2023-02-15T07:27:31;99018.53;;;2.17;73.69
47374;BME280;33123;50.118;10.272;2023-02-15T07:29:58;99016.22;;;2.14;73.29
47374;BME280;33123;50.118;10.272;2023-02-15T07:32:27;99023.56;;;2.19;73.24
47374;BME280;33123;50.118;10.272;2023-02-15T07:34:53;99020.78;;;2.20;73.58
47374;BME280;33123;50.118;10.272;2023-02-15T07:37:20;99017.56;;;2.18;73.17
47374;BME280;33123;50.118;10.272;2023-02-15T07:39:47;99009.41;;;2.21;74.01
47374;BME280;33123;50.118;10.272;2023-02-15T07:42:15;99010.22;;;2.22;74.13
47374;BME280;33123;50.118;10.272;2023-02-15T07:44:43;99014.13;;;2.26;73.61
47374;BME280;33123;50.118;10.272;2023-02-15T07:47:09;99009.75;;;2.26;73.59
47374;BME280;33123;50.118;10.272;2023-02-15T07:49:37;99010.56;;;2.27;72.86
47374;BME280;33123;50.118;10.272;2023-02-15T07:52:04;98998.53;;;2.26;73.06
47374;BME280;33123;50.118;10.272;2023-02-15T07:54:31;99005.03;;;2.22;73.37
47374;BME280;33123;50.118;10.272;2023-02-15T07:56:58;99004.38;;;2.20;72.76
47374;BME280;33123;50.118;10.272;2023-02-15T07:59:28;99001.28;;;2.08;72.78
47374;BME280;33123;50.118;10.272;2023-02-15T08:01:54;98999.47;;;2.08;73.32
47374;BME280;33123;50.118;10.272;2023-02-15T08:04:23;98987.28;;;2.09;73.30
47374;BME280;33123;50.118;10.272;2023-02-15T08:06:52;98978.81;;;1.99;74.07
47374;BME280;33123;50.118;10.272;2023-02-15T08:09:20;99000.28;;;2.09;73.92
47374;BME280;33123;50.118;10.272;2023-02-15T08:11:47;99002.09;;;2.08;73.31
47374;BME280;33123;50.118;10.272;2023-02-15T08:14:16;98991.97;;;2.05;73.15
47374;BME280;33123;50.118;10.272;2023-02-15T08:16:46;99000.13;;;2.10;72.68
47374;BME280;33123;50.118;10.272;2023-02-15T08:19:15;98990.38;;;2.04;73.13
47374;BME280;33123;50.118;10.272;2023-02-15T08:21:43;98989.59;;;2.12;72.42
47374;BME280;33123;50.118;10.272;2023-02-15T08:24:12;98954.44;;;1.92;72.86
47374;BME280;33123;50.118;10.272;2023-02-15T08:26:39;98999.50;;;2.17;73.32
47374;BME280;33123;50.118;10.272;2023-02-15T08:29:08;98998.53;;;2.26;74.27
47374;BME280;33123;50.118;10.272;2023-02-15T08:31:36;98997.88;;;2.32;73.80
47374;BME280;33123;50.118;10.272;2023-02-15T08:34:05;98994.63;;;2.38;72.98
47374;BME280;33123;50.118;10.272;2023-02-15T08:36:32;99001.50;;;2.39;72.12
47374;BME280;33123;50.118;10.272;2023-02-15T08:39:02;99000.97;;;2.44;72.06
47374;BME280;33123;50.118;10.272;2023-02-15T08:41:30;99007.34;;;2.41;71.83
47374;BME280;33123;50.118;10.272;2023-02-15T08:44:00;98979.69;;;2.24;71.61
47374;BME280;33123;50.118;10.272;2023-02-15T08:46:28;98972.69;;;2.24;71.83
47374;BME280;33123;50.118;10.272;2023-02-15T08:48:55;98999.06;;;2.46;72.48
47374;BME280;33123;50.118;10.272;2023-02-15T08:51:25;99008.00;;;2.51;72.43
47374;BME280;33123;50.118;10.272;2023-02-15T08:53:54;98999.22;;;2.52;71.05
47374;BME280;33123;50.118;10.272;2023-02-15T08:56:23;98995.47;;;2.55;71.33
47374;BME280;33123;50.118;10.272;2023-02-15T08:58:50;98993.66;;;2.55;71.76
47374;BME280;33123;50.118;10.272;2023-02-15T09:01:19;98992.84;;;2.55;71.86
47374;BME280;33123;50.118;10.272;2023-02-15T09:03:48;98982.31;;;2.40;70.94
47374;BME280;33123;50.118;10.272;2023-02-15T09:06:16;99006.53;;;2.57;70.99
47374;BME280;33123;50.118;10.272;2023-02-15T09:08:44;98998.56;;;2.42;71.86
47374;BME280;33123;50.118;10.272;2023-02-15T09:11:14;98999.72;;;2.56;70.84
47374;BME280;33123;50.118;10.272;2023-02-15T09:13:42;99000.84;;;2.53;70.80
47374;BME280;33123;50.118;10.272;2023-02-15T09:16:10;98996.28;;;2.55;71.01
47374;BME280;33123;50.118;10.272;2023-02-15T09:18:38;98999.84;;;2.54;71.13
47374;BME280;33123;50.118;10.272;2023-02-15T09:21:07;98989.44;;;2.54;71.23
47374;BME280;33123;50.118;10.272;2023-02-15T09:23:34;98991.91;;;2.56;71.80
47374;BME280;33123;50.118;10.272;2023-02-15T09:26:04;98988.47;;;2.55;71.41
47374;BME280;33123;50.118;10.272;2023-02-15T09:28:32;98951.41;;;2.45;71.38
47374;BME280;33123;50.118;10.272;2023-02-15T09:31:10;98977.44;;;2.61;70.93
47374;BME280;33123;50.118;10.272;2023-02-15T09:33:38;98975.44;;;2.55;70.77
47374;BME280;33123;50.118;10.272;2023-02-15T09:36:14;98973.19;;;2.60;71.70
47374;BME280;33123;50.118;10.272;2023-02-15T09:38:41;98980.66;;;2.63;72.25
47374;BME280;33123;50.118;10.272;2023-02-15T09:41:25;98965.38;;;2.60;71.45
47374;BME280;33123;50.118;10.272;2023-02-15T09:44:06;98979.88;;;2.63;70.93
47374;BME280;33123;50.118;10.272;2023-02-15T09:46:52;98973.03;;;2.62;71.34
47374;BME280;33123;50.118;10.272;2023-02-15T09:49:31;98972.03;;;2.71;71.61
47374;BME280;33123;50.118;10.272;2023-02-15T09:52:26;98965.03;;;2.72;71.34
47374;BME280;33123;50.118;10.272;2023-02-15T09:55:19;98974.16;;;2.84;71.57
47374;BME280;33123;50.118;10.272;2023-02-15T09:57:54;98974.63;;;2.87;71.80
47374;BME280;33123;50.118;10.272;2023-02-15T10:00:30;98979.34;;;2.92;71.90
47374;BME280;33123;50.118;10.272;2023-02-15T10:03:18;98973.81;;;2.95;70.84
47374;BME280;33123;50.118;10.272;2023-02-15T10:05:57;98974.13;;;2.92;70.57
47374;BME280;33123;50.118;10.272;2023-02-15T10:08:40;98973.31;;;2.91;71.06
47374;BME280;33123;50.118;10.272;2023-02-15T10:11:15;98972.50;;;2.91;71.35
47374;BME280;33123;50.118;10.272;2023-02-15T10:14:13;98978.03;;;2.96;71.78
47374;BME280;33123;50.118;10.272;2023-02-15T10:16:49;98974.13;;;2.92;71.93
47374;BME280;33123;50.118;10.272;2023-02-15T10:19:27;98978.34;;;3.01;71.12
47374;BME280;33123;50.118;10.272;2023-02-15T10:22:04;98981.28;;;3.06;71.12
47374;BME280;33123;50.118;10.272;2023-02-15T10:24:47;98982.41;;;3.12;71.10
47374;BME280;33123;50.118;10.272;2023-02-15T10:27:22;98979.94;;;3.10;71.59
47374;BME280;33123;50.118;10.272;2023-02-15T10:29:59;98976.69;;;3.16;70.68
47374;BME280;33123;50.118;10.272;2023-02-15T10:32:32;98973.13;;;3.17;70.48
47374;BME280;33123;50.118;10.272;2023-02-15T10:35:10;98975.06;;;3.15;70.40
47374;BME280;33123;50.118;10.272;2023-02-15T10:37:49;98964.97;;;3.12;70.28
47374;BME280;33123;50.118;10.272;2023-02-15T10:40:29;98964.63;;;3.15;71.07
47374;BME280;33123;50.118;10.272;2023-02-15T10:43:18;98965.94;;;3.20;71.68
47374;BME280;33123;50.118;10.272;2023-02-15T10:45:56;98949.63;;;3.26;71.58
47374;BME280;33123;50.118;10.272;2023-02-15T10:48:51;98955.19;;;3.23;70.79
47374;BME280;33123;50.118;10.272;2023-02-15T10:51:29;98954.38;;;3.22;70.11
47374;BME280;33123;50.118;10.272;2023-02-15T10:54:09;98949.31;;;3.21;70.69
47374;BME280;33123;50.118;10.272;2023-02-15T10:56:48;98949.66;;;3.17;71.15
47374;BME280;33123;50.118;10.272;2023-02-15T10:59:25;98943.78;;;3.15;70.83
47374;BME280;33123;50.118;10.272;2023-02-15T11:02:02;98939.78;;;2.97;70.98
47374;BME280;33123;50.118;10.272;2023-02-15T11:04:48;98950.03;;;2.98;70.83
47374;BME280;33123;50.118;10.272;2023-02-15T11:07:21;98949.03;;;2.99;70.30
47374;BME280;33123;50.118;10.272;2023-02-15T11:09:53;98956.69;;;3.09;70.82
47374;BME280;33123;50.118;10.272;2023-02-15T11:12:24;98958.28;;;3.18;71.02
47374;BME280;33123;50.118;10.272;2023-02-15T11:14:57;98954.88;;;3.17;70.24
47374;BME280;33123;50.118;10.272;2023-02-15T11:17:35;98949.97;;;3.23;70.07
47374;BME280;33123;50.118;10.272;2023-02-15T11:20:14;98938.75;;;3.22;69.77
47374;BME280;33123;50.118;10.272;2023-02-15T11:22:47;98932.69;;;3.22;69.96
47374;BME280;33123;50.118;10.272;2023-02-15T11:25:18;98939.63;;;2.98;70.72
47374;BME280;33123;50.118;10.272;2023-02-15T11:27:47;98929.50;;;3.11;70.68
47374;BME280;33123;50.118;10.272;2023-02-15T11:30:17;98932.69;;;3.22;70.63
47374;BME280;33123;50.118;10.272;2023-02-15T11:32:49;98936.66;;;3.17;70.36
47374;BME280;33123;50.118;10.272;2023-02-15T11:35:23;98936.28;;;3.29;70.32
47374;BME280;33123;50.118;10.272;2023-02-15T11:37:54;98933.44;;;3.38;70.20
47374;BME280;33123;50.118;10.272;2023-02-15T11:40:24;98932.44;;;3.48;71.02
47374;BME280;33123;50.118;10.272;2023-02-15T11:42:53;98932.75;;;3.53;69.90
47374;BME280;33123;50.118;10.272;2023-02-15T11:45:26;98918.97;;;3.36;69.77
47374;BME280;33123;50.118;10.272;2023-02-15T11:47:56;98919.09;;;3.51;69.62
47374;BME280;33123;50.118;10.272;2023-02-15T11:50:26;98916.47;;;3.51;69.59
47374;BME280;33123;50.118;10.272;2023-02-15T11:52:58;98918.53;;;3.55;69.74
47374;BME280;33123;50.118;10.272;2023-02-15T11:55:27;98918.22;;;3.58;69.63
47374;BME280;33123;50.118;10.272;2023-02-15T11:57:59;98925.19;;;3.66;69.46
47374;BME280;33123;50.118;10.272;2023-02-15T12:00:32;98923.53;;;3.73;70.24
47374;BME280;33123;50.118;10.272;2023-02-15T12:03:09;98920.91;;;3.73;69.61
47374;BME280;33123;50.118;10.272;2023-02-15T12:05:42;98924.06;;;3.91;69.91
47374;BME280;33123;50.118;10.272;2023-02-15T12:08:15;98926.97;;;3.96;68.91
47374;BME280;33123;50.118;10.272;2023-02-15T12:10:52;98920.75;;;3.97;68.26
47374;BME280;33123;50.118;10.272;2023-02-15T12:13:22;98922.66;;;3.81;68.44
47374;BME280;33123;50.118;10.272;2023-02-15T12:15:51;98917.44;;;3.81;68.43
47374;BME280;33123;50.118;10.272;2023-02-15T12:18:31;98910.59;;;3.80;69.00
47374;BME280;33123;50.118;10.272;2023-02-15T12:21:02;98919.06;;;3.82;68.88
47374;BME280;33123;50.118;10.272;2023-02-15T12:23:31;98914.13;;;3.87;69.44
47374;BME280;33123;50.118;10.272;2023-02-15T12:25:59;98910.25;;;3.83;69.31
47374;BME280;33123;50.118;10.272;2023-02-15T12:28:31;98907.00;;;3.81;69.13
47374;BME280;33123;50.118;10.272;2023-02-15T12:30:59;98908.03;;;3.71;68.69
47374;BME280;33123;50.118;10.272;2023-02-15T12:33:30;98905.81;;;3.60;68.81
47374;BME280;33123;50.118;10.272;2023-02-15T12:36:00;98907.22;;;3.71;69.40
47374;BME280;33123;50.118;10.272;2023-02-15T12:38:28;98892.25;;;3.73;69.02
47374;BME280;33123;50.118;10.272;2023-02-15T12:40:58;98897.75;;;3.78;69.08
47374;BME280;33123;50.118;10.272;2023-02-15T12:43:26;98903.41;;;3.82;69.36
47374;BME280;33123;50.118;10.272;2023-02-15T12:45:53;98895.88;;;3.87;69.40
47374;BME280;33123;50.118;10.272;2023-02-15T12:48:41;98894.19;;;3.94;69.32
47374;BME280;33123;50.118;10.272;2023-02-15T12:51:09;98889.13;;;4.01;69.07
47374;BME280;33123;50.118;10.272;2023-02-15T12:53:40;98888.56;;;4.05;69.74
47374;BME280;33123;50.118;10.272;2023-02-15T12:56:09;98884.75;;;4.16;70.40
47374;BME280;33123;50.118;10.272;2023-02-15T12:58:37;98886.50;;;4.23;69.07
47374;BME280;33123;50.118;10.272;2023-02-15T13:01:11;98882.00;;;4.32;68.14
47374;BME280;33123;50.118;10.272;2023-02-15T13:03:39;98879.06;;;4.35;68.19
47374;BME280;33123;50.118;10.272;2023-02-15T13:06:18;98883.47;;;4.35;68.49
47374;BME280;33123;50.118;10.272;2023-02-15T13:08:47;98881.84;;;4.34;68.21
47374;BME280;33123;50.118;10.272;2023-02-15T13:11:21;98870.41;;;4.35;68.36
47374;BME280;33123;50.118;10.272;2023-02-15T13:13:51;98865.63;;;4.38;68.88
47374;BME280;33123;50.118;10.272;2023-02-15T13:16:24;98867.91;;;4.41;68.29
47374;BME280;33123;50.118;10.272;2023-02-15T13:18:56;98860.59;;;4.37;67.99
47374;BME280;33123;50.118;10.272;2023-02-15T13:21:30;98869.75;;;4.18;68.33
47374;BME280;33123;50.118;10.272;2023-02-15T13:24:01;98857.47;;;4.04;68.69
47374;BME280;33123;50.118;10.272;2023-02-15T13:26:30;98854.03;;;4.03;69.09